Flight Track Log - Related Links

Times and Time Zones

All times are in EDT time to prevent confusion due to time zone crossing. See the SWA2339 flight status page for this flight to view local times or setup timezone preferences in your user account.


Time Position Orientation Groundspeed Altitude Reporting Facility
EDT Latitude Longitude Course Direction KTS MPH feet Rate Location/Type
Sun 12:21:02 PM 41.7122 -87.7072 181° South 222 255 3,900  Level Chicago Center
Sun 12:22:03 PM 41.7300 -87.7908 286° West 234 269 4,000 1,415 Climbing Chicago Center
Sun 12:23:05 PM 41.7583 -87.9017 289° West 253 291 6,800 3,000 Climbing Chicago Center
Sun 12:24:07 PM 41.7758 -87.9906 285° West 253 291 10,200 2,419 Climbing Chicago Center
Sun 12:25:00 PM 41.8669 -88.5856 277° West  Level FlightAware Approximate
Sun 12:25:09 PM 41.7706 -88.0981 266° West 290 334 11,800  Level Chicago Center
Sun 12:26:10 PM 41.7744 -88.2236 272° West 338 389 14,300 2,537 Climbing Chicago Center
Sun 12:27:12 PM 41.8264 -88.3339 302° West 354 407 17,000 2,468 Climbing Chicago Center
Sun 12:28:14 PM 41.8939 -88.4722 303° West 372 428 19,400 2,371 Climbing Chicago Center
Sun 12:29:16 PM 41.9558 -88.5900 305° West 383 441 21,900 1,742 Climbing Chicago Center
Sun 12:30:18 PM 42.0189 -88.7117 305° West 394 453 23,000 532 Climbing Chicago Center
Sun 12:31:20 PM 42.0781 -88.8422 301° West 399 459 23,000 774 Level Chicago Center
Sun 12:32:22 PM 42.0858 -88.9878 274° West 391 450 24,600 1,887 Climbing Chicago Center
Sun 12:33:24 PM 42.0922 -89.1342 273° West 390 449 26,900 1,597 Climbing Chicago Center
Sun 12:34:26 PM 42.0997 -89.3097 273° West 400 460 27,900 1,210 Climbing Chicago Center
Sun 12:35:28 PM 42.1089 -89.4681 275° West 415 478 29,400 1,610 Climbing Chicago Center
Sun 12:36:29 PM 42.1178 -89.6281 274° West 426 490 31,200 1,707 Climbing Chicago Center
Sun 12:37:31 PM 42.1264 -89.7844 274° West 420 483 32,900 1,500 Climbing Chicago Center
Sun 12:38:33 PM 42.1308 -89.9264 272° West 413 475 34,300 1,500 Climbing Chicago Center
Sun 12:39:35 PM 42.1381 -90.1064 273° West 405 466 36,000 823 Climbing Chicago Center
Sun 12:40:37 PM 42.1447 -90.2547 274° West 401 461 36,000  Level Chicago Center
Sun 12:41:39 PM 42.1511 -90.4033 273° West 400 460 36,000  Level Chicago Center
Sun 12:42:41 PM 42.1564 -90.5514 273° West 399 459 36,000  Level Chicago Center
Sun 12:43:43 PM 42.1617 -90.7003 273° West 400 460 36,000  Level Chicago Center
Sun 12:44:45 PM 42.1675 -90.8497 273° West 401 461 36,000  Level Chicago Center
Sun 12:45:47 PM 42.1722 -91.0322 272° West 406 467 36,000  Level Chicago Center
Sun 12:46:49 PM 42.1758 -91.1869 272° West 413 475 36,000  Level Chicago Center
Sun 12:47:51 PM 42.1811 -91.3383 273° West 406 467 36,000  Level Chicago Center
Sun 12:48:53 PM 42.1850 -91.4906 272° West 408 470 36,000  Level Chicago Center
Sun 12:49:55 PM 42.1897 -91.6439 272° West 410 472 36,000  Level Chicago Center
Sun 12:50:57 PM 42.1931 -91.7967 272° West 409 471 36,000  Level Chicago Center
Sun 12:51:59 PM 42.1986 -91.9806 272° West 409 471 36,000  Level Chicago Center
Sun 12:53:01 PM 42.2022 -92.1317 272° West 406 467 36,000  Level Chicago Center
Sun 12:53:28 PM 42.2036 -92.1944 272° West 407 468 36,000  Level Minneapolis Center
Sun 12:54:30 PM 42.2061 -92.3472 271° West 408 470 36,000  Level Minneapolis Center
Sun 12:55:32 PM 42.2089 -92.5019 271° West 412 474 36,000  Level Minneapolis Center
Sun 12:56:33 PM 42.2119 -92.6533 272° West 409 471 36,000  Level Minneapolis Center
Sun 12:57:35 PM 42.2147 -92.8361 271° West 406 467 36,000  Level Minneapolis Center
Sun 12:58:37 PM 42.2175 -92.9881 271° West 407 468 36,000  Level Minneapolis Center
Sun 12:59:38 PM 42.2194 -93.1419 271° West 412 474 36,000  Level Minneapolis Center
Sun 01:00:40 PM 42.2211 -93.2950 271° West 411 473 36,000  Level Minneapolis Center
Sun 01:01:42 PM 42.2236 -93.4481 271° West 411 473 36,000  Level Minneapolis Center
Sun 01:02:43 PM 42.2256 -93.6008 271° West 410 472 36,000  Level Minneapolis Center
Sun 01:03:45 PM 42.2272 -93.7825 271° West 407 468 36,000  Level Minneapolis Center
Sun 01:04:47 PM 42.2292 -93.9328 271° West 405 466 36,000  Level Minneapolis Center
Sun 01:05:48 PM 42.2314 -94.0833 271° West 404 465 36,000  Level Minneapolis Center
Sun 01:06:50 PM 42.2319 -94.2497 270° West 402 463 36,000  Level Minneapolis Center
Sun 01:07:52 PM 42.2308 -94.4000 269° West 400 460 36,000  Level Minneapolis Center
Sun 01:08:54 PM 42.2306 -94.5503 270° West 402 463 36,000  Level Minneapolis Center
Sun 01:09:55 PM 42.2308 -94.7003 270° West 401 461 36,000  Level Minneapolis Center
Sun 01:10:57 PM 42.2308 -94.8519 270° West 403 464 36,000  Level Minneapolis Center
Sun 01:11:59 PM 42.2303 -95.0044 270° West 406 467 36,000  Level Minneapolis Center
Sun 01:13:00 PM 42.2294 -95.1561 270° West 406 467 36,000  Level Minneapolis Center
Sun 01:14:02 PM 42.2294 -95.3403 270° West 408 470 36,000  Level Minneapolis Center
Sun 01:15:04 PM 42.2281 -95.4933 269° West 409 471 36,000  Level Minneapolis Center
Sun 01:16:05 PM 42.2272 -95.6461 270° West 409 471 36,000  Level Minneapolis Center
Sun 01:17:07 PM 42.2250 -95.7947 269° West 403 464 36,000  Level Minneapolis Center
Sun 01:18:09 PM 42.2233 -95.9450 269° West 403 464 36,000  Level Minneapolis Center
Sun 01:19:10 PM 42.2219 -96.0958 269° West 403 464 36,000  Level Minneapolis Center
Sun 01:20:12 PM 42.2200 -96.2472 269° West 403 464 36,000  Level Minneapolis Center
Sun 01:21:14 PM 42.2178 -96.4258 269° West 402 463 36,000  Level Minneapolis Center
Sun 01:22:15 PM 42.2150 -96.5764 269° West 403 464 36,000  Level Minneapolis Center
Sun 01:23:17 PM 42.2128 -96.7250 269° West 399 459 36,000  Level Minneapolis Center
Sun 01:24:19 PM 42.2092 -96.8775 268° West 405 466 36,000  Level Minneapolis Center
Sun 01:25:21 PM 42.2061 -97.0272 268° West 402 463 36,000  Level Minneapolis Center
Sun 01:26:22 PM 42.2033 -97.1758 269° West 401 461 36,000  Level Minneapolis Center
Sun 01:27:24 PM 42.2000 -97.3547 269° West 399 459 36,000  Level Minneapolis Center
Sun 01:28:26 PM 42.1953 -97.5064 268° West 403 464 36,000  Level Minneapolis Center
Sun 01:29:27 PM 42.1917 -97.6567 268° West 403 464 36,000  Level Minneapolis Center
Sun 01:30:29 PM 42.1886 -97.8086 268° West 405 466 36,000  Level Minneapolis Center
Sun 01:31:31 PM 42.1839 -97.9631 268° West 404 465 36,000  Level Minneapolis Center
Sun 01:32:33 PM 42.1797 -98.1147 268° West 404 465 36,000  Level Minneapolis Center
Sun 01:33:34 PM 42.1753 -98.2667 268° West 406 467 36,000  Level Minneapolis Center
Sun 01:34:36 PM 42.1697 -98.4172 267° West 404 465 36,000  Level Minneapolis Center
Sun 01:35:38 PM 42.1644 -98.5972 268° West 402 463 36,000 -49 Level Minneapolis Center
Sun 01:36:39 PM 42.1586 -98.7469 267° West 401 461 35,900  Descending Minneapolis Center
Sun 01:37:41 PM 42.1533 -98.8956 267° West 398 458 36,000 48 Climbing Minneapolis Center
Sun 01:38:43 PM 42.1481 -99.0450 267° West 400 460 36,000  Level Minneapolis Center
Sun 01:39:44 PM 42.1428 -99.1936 267° West 399 459 36,000  Level Minneapolis Center
Sun 01:40:46 PM 42.1369 -99.3428 267° West 401 461 36,000  Level Minneapolis Center
Sun 01:41:17 PM 42.1322 -99.4331 266° West 402 463 36,000  Level Denver Center
Sun 01:42:19 PM 42.1258 -99.5811 267° West 400 460 36,000  Level Denver Center
Sun 01:43:21 PM 42.1192 -99.7378 267° West 399 459 36,000  Level Denver Center
Sun 01:44:23 PM 42.1122 -99.9044 267° West 399 459 36,000  Level Denver Center
Sun 01:45:25 PM 42.1058 -100.0417 266° West 390 449 36,000  Level Denver Center
Sun 01:46:27 PM 42.0992 -100.1803 266° West 388 447 36,000  Level Denver Center
Sun 01:47:29 PM 42.0917 -100.3400 266° West 385 443 36,000  Level Denver Center
Sun 01:48:31 PM 42.0844 -100.4792 266° West 388 447 36,000  Level Denver Center
Sun 01:49:33 PM 42.0767 -100.6397 266° West 386 444 36,000 144 Level Denver Center
Sun 01:50:36 PM 42.0686 -100.7783 266° West 388 447 36,300 528 Climbing Denver Center
Sun 01:51:38 PM 42.0597 -100.9453 266° West 402 463 37,100 823 Climbing Denver Center
Sun 01:52:40 PM 42.0517 -101.0883 266° West 403 464 38,000 435 Climbing Denver Center
Sun 01:53:42 PM 42.0425 -101.2547 266° West 400 460 38,000  Level Denver Center
Sun 01:54:44 PM 42.0394 -101.3969 268° West 399 459 38,000  Level Denver Center
Sun 01:55:46 PM 42.0347 -101.5647 268° West 402 463 38,000  Level Denver Center
Sun 01:56:48 PM 42.0306 -101.7058 268° West 398 458 38,000  Level Denver Center
Sun 01:57:50 PM 42.0256 -101.8725 268° West 400 460 38,000  Level Denver Center
Sun 01:58:52 PM 42.0208 -102.0147 267° West 400 460 38,000  Level Denver Center
Sun 01:59:54 PM 42.0169 -102.1778 268° West 393 452 38,000  Level Denver Center
Sun 02:01:08 PM 42.0097 -102.3644 267° West 395 455 38,000  Level Denver Center
Sun 02:02:10 PM 42.0047 -102.5042 267° West 391 450 38,000  Level Denver Center
Sun 02:03:13 PM 41.9992 -102.6689 267° West 394 453 38,000  Level Denver Center
Sun 02:04:15 PM 41.9942 -102.8103 267° West 395 455 38,000  Level Denver Center
Sun 02:05:17 PM 41.9881 -102.9525 267° West 398 458 38,000  Level Denver Center
Sun 02:06:19 PM 41.9814 -103.1158 267° West 394 453 38,000  Level Denver Center
Sun 02:07:21 PM 41.9758 -103.2578 267° West 396 456 38,000  Level Denver Center
Sun 02:08:22 PM 41.9681 -103.4244 266° West 400 460 38,000  Level Denver Center
Sun 02:09:24 PM 41.9631 -103.5647 267° West 395 455 38,000  Level Denver Center
Sun 02:10:26 PM 41.9550 -103.7303 266° West 396 456 38,000  Level Denver Center
Sun 02:11:28 PM 41.9492 -103.8717 267° West 396 456 38,000  Level Denver Center
Sun 02:12:30 PM 41.9414 -104.0344 266° West 391 450 38,000  Level Denver Center
Sun 02:13:32 PM 41.9342 -104.1747 266° West 391 450 38,000  Level Denver Center
Sun 02:14:34 PM 41.9269 -104.3142 266° West 390 449 38,000  Level Denver Center
Sun 02:15:36 PM 41.9183 -104.4769 266° West 389 448 38,000  Level Denver Center
Sun 02:16:37 PM 41.9117 -104.6167 266° West 389 448 38,000  Level Denver Center
Sun 02:17:39 PM 41.9022 -104.7811 266° West 393 452 38,000  Level Denver Center
Sun 02:18:41 PM 41.8950 -104.9217 266° West 394 453 38,000  Level Denver Center
Sun 02:19:43 PM 41.8853 -105.0844 265° West 392 451 38,000  Level Denver Center
Sun 02:20:57 PM 41.8756 -105.2481 265° West 393 452 38,000  Level Denver Center
Sun 02:21:59 PM 41.8658 -105.4125 266° West 396 456 38,000  Level Denver Center
Sun 02:23:01 PM 41.8581 -105.5536 266° West 395 455 38,000  Level Denver Center
Sun 02:24:02 PM 41.8467 -105.7156 265° West 392 451 38,000  Level Denver Center
Sun 02:25:04 PM 41.8386 -105.8564 266° West 394 453 38,000  Level Denver Center
Sun 02:26:06 PM 41.8294 -105.9986 265° West 399 459 38,000  Level Denver Center
Sun 02:27:08 PM 41.8186 -106.1617 265° West 395 455 38,000  Level Denver Center
Sun 02:28:10 PM 41.8094 -106.3022 265° West 396 456 38,000  Level Denver Center
Sun 02:29:12 PM 41.7978 -106.4656 265° West 395 455 38,000  Level Denver Center
Sun 02:30:13 PM 41.7881 -106.6056 265° West 393 452 38,000  Level Denver Center
Sun 02:31:15 PM 41.7753 -106.7686 264° West 394 453 38,000  Level Denver Center
Sun 02:32:17 PM 41.7656 -106.9086 265° West 395 455 38,000  Level Denver Center
Sun 02:33:19 PM 41.7556 -107.0483 265° West 395 455 38,000  Level Denver Center
Sun 02:34:21 PM 41.7422 -107.2106 264° West 393 452 38,000  Level Denver Center
Sun 02:35:23 PM 41.7319 -107.3503 264° West 394 453 38,000  Level Denver Center
Sun 02:36:24 PM 41.7203 -107.5128 265° West 394 453 38,000  Level Denver Center
Sun 02:37:26 PM 41.7086 -107.6542 264° West 397 457 38,000  Level Denver Center
Sun 02:38:28 PM 41.6950 -107.8169 264° West 397 457 38,000  Level Denver Center
Sun 02:39:30 PM 41.6836 -107.9572 264° West 396 456 38,000  Level Denver Center
Sun 02:40:32 PM 41.6706 -108.1186 264° West 394 453 38,000  Level Denver Center
Sun 02:41:23 PM 41.6589 -108.2339 262° West 391 450 38,000  Level Salt Lake Center
Sun 02:42:24 PM 41.6475 -108.3711 264° West 388 447 38,000  Level Salt Lake Center
Sun 02:43:25 PM 41.6342 -108.5308 264° West 388 447 38,000  Level Salt Lake Center
Sun 02:44:27 PM 41.6225 -108.6672 264° West 389 448 38,000  Level Salt Lake Center
Sun 02:45:29 PM 41.6078 -108.8269 263° West 390 449 38,000  Level Salt Lake Center
Sun 02:46:31 PM 41.5950 -108.9639 263° West 391 450 38,000  Level Salt Lake Center
Sun 02:47:32 PM 41.5800 -109.1222 263° West 391 450 38,000  Level Salt Lake Center
Sun 02:48:34 PM 41.5675 -109.2592 263° West 395 455 38,000  Level Salt Lake Center
Sun 02:49:36 PM 41.5517 -109.4178 262° West 391 450 38,000  Level Salt Lake Center
Sun 02:50:37 PM 41.5381 -109.5550 262° West 391 450 38,000  Level Salt Lake Center
Sun 02:51:39 PM 41.5222 -109.7150 263° West 391 450 38,000  Level Salt Lake Center
Sun 02:52:41 PM 41.5083 -109.8519 262° West 389 448 38,000  Level Salt Lake Center
Sun 02:53:42 PM 41.4919 -110.0089 262° West 384 442 38,000  Level Salt Lake Center
Sun 02:54:44 PM 41.4789 -110.1431 263° West 382 440 38,000  Level Salt Lake Center
Sun 02:55:46 PM 41.4639 -110.2786 262° West 386 444 38,000  Level Salt Lake Center
Sun 02:56:48 PM 41.4478 -110.4350 262° West 382 440 38,000  Level Salt Lake Center
Sun 02:57:49 PM 41.4339 -110.5697 262° West 384 442 38,000  Level Salt Lake Center
Sun 02:58:51 PM 41.4167 -110.7289 262° West 388 447 38,000  Level Salt Lake Center
Sun 02:59:53 PM 41.4006 -110.8658 261° West 391 450 38,000  Level Salt Lake Center
Sun 03:00:54 PM 41.3861 -111.0044 262° West 390 449 38,000  Level Salt Lake Center
Sun 03:01:56 PM 41.3694 -111.1481 261° West 393 452 38,000  Level Salt Lake Center
Sun 03:02:58 PM 41.3506 -111.3186 262° West 392 451 38,000  Level Salt Lake Center
Sun 03:04:00 PM 41.3344 -111.4589 261° West 387 445 38,000  Level Salt Lake Center
Sun 03:05:01 PM 41.3183 -111.6003 261° West 390 449 38,000  Level Salt Lake Center
Sun 03:06:03 PM 41.3014 -111.7419 261° West 393 452 38,000  Level Salt Lake Center
Sun 03:07:05 PM 41.2844 -111.8828 261° West 392 451 38,000  Level Salt Lake Center
Sun 03:08:07 PM 41.2647 -112.0517 261° West 391 450 38,000  Level Salt Lake Center
Sun 03:09:08 PM 41.2478 -112.1925 261° West 391 450 38,000  Level Salt Lake Center
Sun 03:10:10 PM 41.2311 -112.3322 261° West 387 445 38,000  Level Salt Lake Center
Sun 03:11:12 PM 41.2133 -112.4722 260° West 388 447 38,000  Level Salt Lake Center
Sun 03:12:14 PM 41.1964 -112.6128 261° West 386 444 38,000  Level Salt Lake Center
Sun 03:13:15 PM 41.1794 -112.7536 261° West 389 448 38,000  Level Salt Lake Center
Sun 03:14:17 PM 41.1578 -112.9239 260° West 391 450 38,000  Level Salt Lake Center
Sun 03:15:19 PM 41.1389 -113.0642 260° West 388 447 38,000  Level Salt Lake Center
Sun 03:16:21 PM 41.1197 -113.2039 260° West 385 443 38,000  Level Salt Lake Center
Sun 03:17:22 PM 41.1006 -113.3417 260° West 382 440 38,000  Level Salt Lake Center
Sun 03:18:24 PM 41.0828 -113.4800 260° West 382 440 38,000  Level Salt Lake Center
Sun 03:19:26 PM 41.0642 -113.6181 260° West 382 440 38,000  Level Salt Lake Center
Sun 03:20:28 PM 41.0458 -113.7533 260° West 377 434 38,000  Level Salt Lake Center
Sun 03:21:29 PM 41.0233 -113.9183 260° West 380 437 38,000  Level Salt Lake Center
Sun 03:22:31 PM 41.0047 -114.0553 260° West 380 437 38,000  Level Salt Lake Center
Sun 03:23:33 PM 40.9853 -114.1953 260° West 385 443 38,000  Level Salt Lake Center
Sun 03:24:35 PM 40.9653 -114.3344 259° West 386 444 38,000 -488 Level Salt Lake Center
Sun 03:25:36 PM 40.9456 -114.4778 260° West 381 438 37,000 -976 Descending Salt Lake Center
Sun 03:26:38 PM 40.9267 -114.6214 260° West 362 417 36,000 -484 Descending Salt Lake Center
Sun 03:27:40 PM 40.9067 -114.7414 258° West 354 407 36,000  Level Salt Lake Center
Sun 03:28:41 PM 40.8894 -114.8631 259° West 352 405 36,000  Level Salt Lake Center
Sun 03:29:43 PM 40.8658 -115.0047 258° West 354 407 36,000  Level Salt Lake Center
Sun 03:30:45 PM 40.8481 -115.1267 259° West 353 406 36,000  Level Salt Lake Center
Sun 03:31:46 PM 40.8272 -115.2711 259° West 359 413 36,000  Level Salt Lake Center
Sun 03:32:48 PM 40.8075 -115.3939 258° West 358 412 36,000  Level Salt Lake Center
Sun 03:33:50 PM 40.7900 -115.5189 260° West 361 415 36,000  Level Salt Lake Center
Sun 03:34:51 PM 40.7686 -115.6633 259° West 360 414 36,000  Level Salt Lake Center
Sun 03:35:53 PM 40.7494 -115.7864 258° West 360 414 36,000  Level Salt Lake Center
Sun 03:36:55 PM 40.7283 -115.9325 259° West 361 415 36,000  Level Salt Lake Center
Sun 03:37:56 PM 40.7094 -116.0569 259° West 362 417 36,000  Level Salt Lake Center
Sun 03:38:58 PM 40.6861 -116.2017 258° West 362 417 36,000  Level Salt Lake Center
Sun 03:40:00 PM 40.6647 -116.3286 258° West 368 423 36,000  Level Salt Lake Center
Sun 03:41:01 PM 40.6456 -116.4544 259° West 368 423 36,000  Level Salt Lake Center
Sun 03:42:03 PM 40.6214 -116.6017 258° West 370 426 36,000  Level Salt Lake Center
Sun 03:43:04 PM 40.6011 -116.7272 258° West 369 425 36,000  Level Salt Lake Center
Sun 03:44:06 PM 40.5775 -116.8733 258° West 369 425 36,000  Level Salt Lake Center
Sun 03:45:08 PM 40.5514 -116.9983 255° West 376 433 36,000  Level Salt Lake Center
Sun 03:46:09 PM 40.5119 -117.1417 250° West 377 434 36,000  Level Salt Lake Center
Sun 03:47:11 PM 40.4794 -117.2664 251° West 377 434 36,000  Level Salt Lake Center
Sun 03:48:12 PM 40.4408 -117.4108 251° West 377 434 36,000  Level Salt Lake Center
Sun 03:49:14 PM 40.4072 -117.5353 251° West 379 436 36,000  Level Salt Lake Center
Sun 03:50:15 PM 40.3683 -117.6806 251° West 379 436 36,000  Level Salt Lake Center
Sun 03:51:17 PM 40.3353 -117.8061 251° West 380 437 36,000  Level Salt Lake Center
Sun 03:52:19 PM 40.3011 -117.9303 250° West 379 436 36,000  Level Salt Lake Center
Sun 03:52:41 PM 40.2861 -117.9931 253° West 378 435 36,000  Level Oakland Center
Sun 03:53:42 PM 40.2494 -118.1233 250° West 383 441 36,000  Level Oakland Center
Sun 03:54:44 PM 40.2139 -118.2564 251° West 387 445 36,000  Level Oakland Center
Sun 03:55:45 PM 40.1775 -118.3889 250° West 388 447 36,000  Level Oakland Center
Sun 03:56:47 PM 40.1400 -118.5225 250° West 392 451 36,000  Level Oakland Center
Sun 03:57:48 PM 40.0794 -118.6767 243° Southwest 400 460 36,000  Level Oakland Center
Sun 03:58:51 PM 40.0267 -118.8047 242° Southwest 402 463 36,000  Level Oakland Center
Sun 03:59:51 PM 39.9722 -118.9297 240° Southwest 398 458 36,000  Level Oakland Center
Sun 04:00:53 PM 39.9192 -119.0561 241° Southwest 400 460 36,000  Level Oakland Center
Sun 04:01:54 PM 39.8653 -119.1808 241° Southwest 398 458 36,000  Level Oakland Center
Sun 04:02:56 PM 39.8114 -119.3069 241° Southwest 401 461 36,000 -195 Level Oakland Center
Sun 04:03:57 PM 39.7569 -119.4317 240° Southwest 400 460 35,600 -732 Descending Oakland Center
Sun 04:04:59 PM 39.6925 -119.5847 241° Southwest 410 472 34,500 -1,024 Descending Oakland Center
Sun 04:06:00 PM 39.6375 -119.7119 241° Southwest 410 472 33,500 -976 Descending Oakland Center
Sun 04:07:02 PM 39.5814 -119.8389 240° Southwest 410 472 32,500 -1,317 Descending Oakland Center
Sun 04:08:03 PM 39.5308 -119.9592 241° Southwest 389 448 30,800 -1,707 Descending Oakland Center
Sun 04:09:05 PM 39.4786 -120.0747 240° Southwest 375 432 29,000 -1,707 Descending Oakland Center
Sun 04:10:06 PM 39.4331 -120.1842 242° Southwest 358 412 27,300 -1,659 Descending Oakland Center
Sun 04:11:08 PM 39.3844 -120.2889 239° Southwest 344 396 25,600 -2,146 Descending Oakland Center
Sun 04:12:09 PM 39.3289 -120.4161 241° Southwest 339 390 22,900 -2,361 Descending Oakland Center
Sun 04:13:10 PM 39.2822 -120.5189 240° Southwest 335 386 20,800 -1,951 Descending Oakland Center
Sun 04:14:12 PM 39.2358 -120.6222 240° Southwest 335 386 18,900 -1,902 Descending Oakland Center
Sun 04:15:13 PM 39.1908 -120.7242 240° Southwest 331 381 16,900 -2,049 Descending Oakland Center
Sun 04:16:15 PM 39.1447 -120.8250 239° Southwest 328 377 14,700 -1,951 Descending Oakland Center
Sun 04:17:16 PM 39.0992 -120.9272 240° Southwest 331 381 12,900 -2,098 Descending Oakland Center
Sun 04:18:18 PM 39.0561 -121.0306 242° Southwest 330 380 10,400 -1,415 Descending Oakland Center
Sun 04:19:19 PM 39.0256 -121.1375 250° West 322 371 10,000 -195 Descending Oakland Center
Sun 04:20:21 PM 38.9953 -121.2356 248° West 307 353 10,000 -275 Level Oakland Center
Sun 04:21:30 PM 38.9500 -121.3667 246° West 267 307 9,400 -977 Descending Northern Cal TRACON
Sun 04:22:30 PM 38.9333 -121.4500 256° West 276 318 7,900 -1,461 Descending Northern Cal TRACON
Sun 04:23:25 PM 38.9000 -121.5333 243° Southwest 278 320 6,600 -1,565 Descending Northern Cal TRACON
Sun 04:24:25 PM 38.8833 -121.6167 256° West 283 326 4,900 -1,415 Descending Northern Cal TRACON
Sun 04:25:28 PM 38.8281 -121.6803 222° Southwest 288 331 3,700 -919 Descending Oakland Center
Sun 04:26:29 PM 38.7519 -121.6881 185° South 280 322 3,000 -390 Descending Oakland Center
Sun 04:27:31 PM 38.6856 -121.6936 184° South 254 292 2,900 -683 Descending Oakland Center
Sun 04:28:32 PM 38.6417 -121.6489 141° Southeast 205 236 1,600 -1,158 Descending Oakland Center
Sun 04:29:25 PM 38.6500 -121.6000 78° East 167 192 700 -789 Descending Northern Cal TRACON
Sun 04:30:26 PM 38.6833 -121.6000 360° North 130 150 100 -590 Descending Northern Cal TRACON

Login

Don't have an account? Register now (free) for customized features, flight alerts, and more!